Time;durP1;ratioP1;P1;durP2;ratioP2;P2;SDS_P1;SDS_P2;PMS_P1;PMS_P2;Temp;Humidity;BMP_temperature;BMP_pressure;BME280_temperature;BME280_humidity;BME280_pressure;Samples;Min_cycle;Max_cycle;Signal;HPM_P1;HPM_P2
2021/05/16 00:01:15;;;;;;;4.25;0.40;;;15.90;62.90;;;;;;5013775;28;20021;-69
2021/05/16 00:03:41;;;;;;;0.45;0.40;;;15.80;62.60;;;;;;5013728;28;20030;-69
2021/05/16 00:06:07;;;;;;;2.08;0.30;;;15.80;62.50;;;;;;5013707;28;20033;-68
2021/05/16 00:08:33;;;;;;;0.30;0.30;;;15.90;63.30;;;;;;5012538;28;20033;-69
2021/05/16 00:10:59;;;;;;;1.23;0.50;;;15.80;63.00;;;;;;5013617;28;20068;-69
2021/05/16 00:13:26;;;;;;;2.20;0.60;;;15.80;62.60;;;;;;5013711;28;20014;-69
2021/05/16 00:15:53;;;;;;;1.60;0.55;;;15.80;62.80;;;;;;5013551;28;20029;-69
2021/05/16 00:18:19;;;;;;;1.05;0.47;;;15.80;62.60;;;;;;5013631;28;20543;-69
2021/05/16 00:20:45;;;;;;;3.67;2.03;;;15.80;62.60;;;;;;5013609;28;20101;-69
2021/05/16 00:23:11;;;;;;;2.05;1.17;;;15.80;62.60;;;;;;5013483;28;20026;-69
2021/05/16 00:25:37;;;;;;;0.70;0.40;;;15.70;62.50;;;;;;5013762;28;20083;-69
2021/05/16 00:28:04;;;;;;;1.13;0.40;;;15.70;62.70;;;;;;5013518;28;20084;-69
2021/05/16 00:30:30;;;;;;;4.30;0.60;;;15.70;62.50;;;;;;5028707;28;20116;-69
2021/05/16 00:32:57;;;;;;;1.20;0.60;;;15.70;62.70;;;;;;5013714;28;20026;-69
2021/05/16 00:35:27;;;;;;;1.45;0.77;;;15.70;62.80;;;;;;5013264;28;20033;-69
2021/05/16 00:37:53;;;;;;;0.90;0.52;;;15.70;62.70;;;;;;5012195;28;20364;-69
2021/05/16 00:40:20;;;;;;;2.20;0.70;;;15.70;62.80;;;;;;5013286;28;20026;-69
2021/05/16 00:42:46;;;;;;;2.10;1.17;;;15.70;63.00;;;;;;5013328;28;20030;-69
2021/05/16 00:45:18;;;;;;;0.77;0.47;;;15.70;63.00;;;;;;5012878;28;20033;-69
2021/05/16 00:47:57;;;;;;;3.17;0.52;;;15.70;62.80;;;;;;5013217;28;20022;-69
2021/05/16 00:50:38;;;;;;;1.17;0.60;;;15.70;62.70;;;;;;5013050;28;20496;-69
2021/05/16 00:53:04;;;;;;;0.68;0.57;;;15.70;62.30;;;;;;5013195;28;20026;-69
2021/05/16 00:55:30;;;;;;;1.88;0.55;;;15.70;62.10;;;;;;5013288;28;20036;-69
2021/05/16 00:57:56;;;;;;;0.60;0.45;;;15.70;62.10;;;;;;5030299;28;20040;-69
2021/05/16 01:00:27;;;;;;;1.90;0.77;;;15.60;62.80;;;;;;5018178;28;20387;-69
2021/05/16 01:02:53;;;;;;;1.45;0.80;;;15.60;62.20;;;;;;5032859;28;20022;-69
2021/05/16 01:05:19;;;;;;;4.10;0.77;;;15.60;62.00;;;;;;5030138;28;20041;-69
2021/05/16 01:07:47;;;;;;;2.45;0.90;;;15.60;62.00;;;;;;5017281;28;20029;-69
2021/05/16 01:10:15;;;;;;;2.13;1.13;;;15.60;62.00;;;;;;5033026;28;20036;-69
2021/05/16 01:12:46;;;;;;;1.10;0.80;;;15.60;62.30;;;;;;5034022;28;20025;-69
2021/05/16 01:15:16;;;;;;;1.33;0.70;;;15.60;62.50;;;;;;5056373;28;20043;-69
2021/05/16 01:17:42;;;;;;;1.98;0.80;;;15.60;62.70;;;;;;5056176;28;20048;-69
2021/05/16 01:20:10;;;;;;;0.40;0.40;;;15.60;62.60;;;;;;5056317;28;20103;-69
2021/05/16 01:22:37;;;;;;;1.13;0.60;;;15.60;62.60;;;;;;5056184;28;20021;-69
2021/05/16 01:25:04;;;;;;;0.95;0.60;;;15.60;62.80;;;;;;5056135;28;20025;-69
2021/05/16 01:27:30;;;;;;;0.63;0.55;;;15.60;62.70;;;;;;5056210;28;20021;-69
2021/05/16 01:29:56;;;;;;;2.55;0.80;;;15.60;62.50;;;;;;5016493;28;20499;-69
2021/05/16 01:32:24;;;;;;;2.85;0.82;;;15.60;62.40;;;;;;5016363;28;20037;-69
2021/05/16 01:34:50;;;;;;;1.35;0.60;;;15.60;62.50;;;;;;5016308;28;20115;-69
2021/05/16 01:37:17;;;;;;;15.60;0.80;;;15.60;62.50;;;;;;5022511;28;20028;-69
2021/05/16 01:39:48;;;;;;;2.10;1.02;;;15.60;62.30;;;;;;5035907;28;20036;-69
2021/05/16 01:42:16;;;;;;;1.48;0.70;;;15.60;62.50;;;;;;5026053;28;20048;-69
2021/05/16 01:44:42;;;;;;;0.77;0.50;;;15.70;62.50;;;;;;5014806;28;20101;-69
2021/05/16 01:47:08;;;;;;;2.05;0.80;;;15.70;62.40;;;;;;5031575;28;20076;-69
2021/05/16 01:49:47;;;;;;;0.55;0.45;;;15.70;62.60;;;;;;5026288;28;20434;-69
2021/05/16 01:52:13;;;;;;;0.80;0.68;;;15.70;62.60;;;;;;5035796;28;20470;-69
2021/05/16 01:54:39;;;;;;;0.85;0.65;;;15.70;62.50;;;;;;5035723;28;20030;-69
2021/05/16 01:57:06;;;;;;;1.65;0.60;;;15.70;62.30;;;;;;5029860;28;20017;-69
2021/05/16 01:59:34;;;;;;;1.60;0.50;;;15.70;62.50;;;;;;5015903;28;20105;-69
2021/05/16 02:02:01;;;;;;;1.58;0.70;;;15.70;62.50;;;;;;5015891;28;20021;-69
2021/05/16 02:04:31;;;;;;;1.48;0.50;;;15.60;62.40;;;;;;5032542;28;20026;-69
2021/05/16 02:06:58;;;;;;;0.73;0.60;;;15.60;62.20;;;;;;5028000;28;20014;-69
2021/05/16 02:09:26;;;;;;;1.25;0.63;;;15.60;62.30;;;;;;5015645;28;20109;-69
2021/05/16 02:11:52;;;;;;;2.25;0.70;;;15.60;62.50;;;;;;5015922;28;20028;-70
2021/05/16 02:14:32;;;;;;;1.13;0.52;;;15.60;62.00;;;;;;5015667;28;20112;-69
2021/05/16 02:17:00;;;;;;;0.88;0.50;;;15.50;61.80;;;;;;5015162;28;20072;-69
2021/05/16 02:19:26;;;;;;;0.93;0.50;;;15.40;61.80;;;;;;5015528;28;20030;-69
2021/05/16 02:21:53;;;;;;;3.28;0.80;;;15.40;62.00;;;;;;5015518;28;20109;-69
2021/05/16 02:24:19;;;;;;;0.65;0.40;;;15.40;62.20;;;;;;5015447;28;20109;-69
2021/05/16 02:26:46;;;;;;;0.60;0.60;;;15.40;62.40;;;;;;5015404;28;20033;-69
2021/05/16 02:29:12;;;;;;;0.90;0.60;;;15.40;62.40;;;;;;5015374;28;20030;-69
2021/05/16 02:31:38;;;;;;;0.32;0.30;;;15.40;62.40;;;;;;5014117;28;20095;-69
2021/05/16 02:34:05;;;;;;;0.60;0.47;;;15.40;62.60;;;;;;5015142;28;20034;-69
2021/05/16 02:36:31;;;;;;;0.68;0.55;;;15.30;63.10;;;;;;5029038;28;20518;-69
2021/05/16 02:38:57;;;;;;;0.60;0.55;;;15.30;62.70;;;;;;5034783;28;20124;-69
2021/05/16 02:41:23;;;;;;;1.23;0.40;;;15.30;62.60;;;;;;5030065;28;20026;-69
2021/05/16 02:43:49;;;;;;;0.52;0.40;;;15.30;62.80;;;;;;5046336;28;20396;-69
2021/05/16 02:46:15;;;;;;;0.55;0.43;;;15.30;62.90;;;;;;5047147;28;20026;-69
2021/05/16 02:48:40;;;;;;;0.73;0.40;;;15.30;63.10;;;;;;5014994;28;20029;-69
2021/05/16 02:51:06;;;;;;;0.63;0.63;;;15.30;63.10;;;;;;5028415;28;20025;-69
2021/05/16 02:53:32;;;;;;;0.35;0.30;;;15.30;63.00;;;;;;5034954;28;20021;-69
2021/05/16 02:55:58;;;;;;;0.65;0.50;;;15.30;63.00;;;;;;5026672;28;20057;-69
2021/05/16 02:58:24;;;;;;;0.70;0.50;;;15.30;63.10;;;;;;5014864;28;20053;-69
2021/05/16 03:00:50;;;;;;;0.80;0.57;;;15.30;63.20;;;;;;5014860;28;20034;-69
2021/05/16 03:03:16;;;;;;;1.95;0.70;;;15.30;63.00;;;;;;5014854;28;20435;-69
2021/05/16 03:05:42;;;;;;;2.47;0.52;;;15.30;63.00;;;;;;5014733;28;20460;-69
2021/05/16 03:08:07;;;;;;;2.40;1.15;;;15.30;63.30;;;;;;5013489;28;20026;-69
2021/05/16 03:10:34;;;;;;;1.35;0.50;;;15.30;63.40;;;;;;5014816;28;20018;-69
2021/05/16 03:13:00;;;;;;;0.55;0.50;;;15.30;63.50;;;;;;5014978;28;20034;-69
2021/05/16 03:15:25;;;;;;;0.30;0.30;;;15.30;63.40;;;;;;5014707;28;20641;-69
2021/05/16 03:17:51;;;;;;;1.05;0.50;;;15.30;63.40;;;;;;5024361;28;20029;-69
2021/05/16 03:20:17;;;;;;;0.70;0.40;;;15.40;63.50;;;;;;5054273;28;20360;-69
2021/05/16 03:22:43;;;;;;;0.47;0.47;;;15.40;63.20;;;;;;5054294;28;20100;-69
2021/05/16 03:25:13;;;;;;;1.80;0.52;;;15.30;63.20;;;;;;5052759;28;20386;-70
2021/05/16 03:27:39;;;;;;;2.88;0.93;;;15.30;63.50;;;;;;5033682;28;20072;-70
2021/05/16 03:30:07;;;;;;;1.83;0.70;;;15.30;63.60;;;;;;5033572;28;20566;-70
2021/05/16 03:32:34;;;;;;;3.30;0.40;;;15.40;63.50;;;;;;5034072;28;20028;-70
2021/05/16 03:34:59;;;;;;;1.63;0.73;;;15.30;63.40;;;;;;5034030;28;20036;-70
2021/05/16 03:37:25;;;;;;;1.50;0.70;;;15.40;63.80;;;;;;5034091;28;20029;-70
2021/05/16 03:39:51;;;;;;;1.58;0.55;;;15.40;63.90;;;;;;5016919;28;20030;-70
2021/05/16 03:42:17;;;;;;;2.10;0.55;;;15.40;63.90;;;;;;5014398;28;20153;-70
2021/05/16 03:44:43;;;;;;;1.52;0.57;;;15.40;63.80;;;;;;5029505;28;20030;-70
2021/05/16 03:47:08;;;;;;;2.28;0.52;;;15.40;63.20;;;;;;5032808;28;20040;-70
2021/05/16 03:49:34;;;;;;;1.10;0.50;;;15.40;63.10;;;;;;5033600;28;20042;-70
2021/05/16 03:52:00;;;;;;;0.80;0.50;;;15.40;63.40;;;;;;5031860;28;20030;-70
2021/05/16 03:54:26;;;;;;;2.50;0.80;;;15.40;63.10;;;;;;5025478;28;20032;-70
2021/05/16 03:56:51;;;;;;;1.77;0.70;;;15.40;62.80;;;;;;5013922;28;20030;-70
2021/05/16 03:59:17;;;;;;;0.70;0.65;;;15.40;62.80;;;;;;5013891;28;20448;-70
2021/05/16 04:01:43;;;;;;;0.55;0.40;;;15.40;62.50;;;;;;5013809;28;20080;-70
2021/05/16 04:04:09;;;;;;;0.98;0.50;;;15.40;62.70;;;;;;5012555;28;20373;-70
2021/05/16 04:06:35;;;;;;;0.70;0.60;;;15.40;62.90;;;;;;5012455;28;20037;-71
2021/05/16 04:09:01;;;;;;;1.02;0.70;;;15.40;63.00;;;;;;5013776;28;20022;-70
2021/05/16 04:11:26;;;;;;;0.60;0.50;;;15.40;63.10;;;;;;5013952;28;20022;-70
2021/05/16 04:13:52;;;;;;;0.50;0.40;;;15.40;63.10;;;;;;5019514;28;20112;-70
2021/05/16 04:16:18;;;;;;;0.90;0.50;;;15.40;63.90;;;;;;5032028;28;20083;-70
2021/05/16 04:18:44;;;;;;;0.73;0.52;;;15.40;62.90;;;;;;5033371;28;20087;-70
2021/05/16 04:21:10;;;;;;;0.68;0.50;;;15.30;62.70;;;;;;5033358;28;20041;-70
2021/05/16 04:23:35;;;;;;;0.68;0.60;;;15.30;62.50;;;;;;5033180;28;20505;-70
2021/05/16 04:26:02;;;;;;;1.02;0.50;;;15.20;62.30;;;;;;5033227;28;20025;-71
2021/05/16 04:28:27;;;;;;;4.72;0.70;;;15.10;62.40;;;;;;5033188;28;20021;-70
2021/05/16 04:30:53;;;;;;;2.50;0.47;;;15.10;62.70;;;;;;5033165;28;20063;-70
2021/05/16 04:33:19;;;;;;;1.17;0.60;;;15.00;62.90;;;;;;5032960;28;20467;-70
2021/05/16 04:35:45;;;;;;;3.30;0.50;;;15.00;62.90;;;;;;5032691;28;20025;-70
2021/05/16 04:38:11;;;;;;;1.45;0.60;;;15.00;63.10;;;;;;5031838;28;20036;-70
2021/05/16 04:40:37;;;;;;;0.60;0.55;;;14.90;63.20;;;;;;5033023;28;20382;-71
2021/05/16 04:43:02;;;;;;;0.60;0.50;;;14.90;63.20;;;;;;5017050;28;20033;-70
2021/05/16 04:45:28;;;;;;;0.63;0.43;;;14.90;63.40;;;;;;5013278;28;20026;-71
2021/05/16 04:47:54;;;;;;;0.52;0.45;;;14.80;63.50;;;;;;5013249;28;20472;-70
2021/05/16 04:50:20;;;;;;;1.67;0.60;;;14.80;63.50;;;;;;5012968;28;20050;-70
2021/05/16 04:52:46;;;;;;;1.15;0.60;;;14.70;63.70;;;;;;5012967;28;20022;-70
2021/05/16 04:55:14;;;;;;;0.40;0.40;;;14.70;64.00;;;;;;5012060;28;20068;-70
2021/05/16 04:57:40;;;;;;;0.50;0.50;;;14.70;64.20;;;;;;5013194;28;20033;-70
2021/05/16 05:00:07;;;;;;;1.30;0.57;;;14.70;64.10;;;;;;5013179;28;20109;-71
2021/05/16 05:02:35;;;;;;;0.38;0.38;;;14.70;64.60;;;;;;5013157;28;20035;-71
2021/05/16 05:05:01;;;;;;;1.40;0.63;;;14.70;64.70;;;;;;5013019;28;20100;-70
2021/05/16 05:07:27;;;;;;;0.40;0.30;;;14.70;64.60;;;;;;5012968;28;20468;-71
2021/05/16 05:09:52;;;;;;;2.22;0.70;;;14.70;64.40;;;;;;5013046;28;20077;-71
2021/05/16 05:12:18;;;;;;;0.55;0.47;;;14.70;64.00;;;;;;5013220;28;20080;-71
2021/05/16 05:14:44;;;;;;;0.75;0.40;;;14.70;63.90;;;;;;5022362;28;20032;-71
2021/05/16 05:17:10;;;;;;;1.02;0.40;;;14.70;64.00;;;;;;5032700;28;20033;-71
2021/05/16 05:19:35;;;;;;;0.75;0.38;;;14.80;64.00;;;;;;5031458;28;20483;-71
2021/05/16 05:22:01;;;;;;;2.83;0.52;;;14.80;63.50;;;;;;5014944;28;20034;-71
2021/05/16 05:24:27;;;;;;;1.10;0.40;;;14.80;63.50;;;;;;5027993;28;20030;-71
2021/05/16 05:26:53;;;;;;;0.60;0.40;;;14.80;63.20;;;;;;5012775;28;20076;-71
2021/05/16 05:29:19;;;;;;;4.10;0.40;;;14.80;63.30;;;;;;5027990;28;20029;-71
2021/05/16 05:31:45;;;;;;;0.98;0.50;;;14.90;63.10;;;;;;5012790;28;20033;-71
2021/05/16 05:34:12;;;;;;;0.40;0.40;;;14.90;62.70;;;;;;5012795;28;20054;-71
2021/05/16 05:36:38;;;;;;;1.02;0.30;;;14.90;62.70;;;;;;5012773;28;20022;-71
2021/05/16 05:39:05;;;;;;;4.93;0.55;;;14.90;62.70;;;;;;5012865;28;20101;-71
2021/05/16 05:41:31;;;;;;;1.70;0.40;;;14.90;62.60;;;;;;5012848;28;20041;-71
2021/05/16 05:43:56;;;;;;;0.70;0.38;;;14.90;62.00;;;;;;5012701;28;20109;-71
2021/05/16 05:46:23;;;;;;;3.50;0.90;;;15.00;61.70;;;;;;5012747;28;20096;-71
2021/05/16 05:48:48;;;;;;;1.20;0.38;;;15.00;61.50;;;;;;5012545;28;20050;-71
2021/05/16 05:51:14;;;;;;;0.60;0.40;;;15.00;60.90;;;;;;5027900;28;20050;-71
2021/05/16 05:53:40;;;;;;;1.17;0.52;;;15.00;61.20;;;;;;5016132;28;20097;-71
2021/05/16 05:56:06;;;;;;;0.50;0.30;;;15.00;60.60;;;;;;5016256;28;20018;-71
2021/05/16 05:58:35;;;;;;;2.03;0.63;;;15.00;60.50;;;;;;5016135;28;20058;-71
2021/05/16 06:01:02;;;;;;;5.30;0.40;;;15.00;60.40;;;;;;5016132;28;20479;-72
2021/05/16 06:03:28;;;;;;;1.50;0.50;;;15.10;60.20;;;;;;5030470;28;20099;-71
2021/05/16 06:05:54;;;;;;;1.00;0.32;;;15.10;59.80;;;;;;5035640;28;20025;-72
2021/05/16 06:08:19;;;;;;;0.40;0.40;;;15.10;59.80;;;;;;5035705;28;20025;-72
2021/05/16 06:10:45;;;;;;;1.10;0.40;;;15.10;60.00;;;;;;5035650;28;20022;-72
2021/05/16 06:13:12;;;;;;;0.82;0.50;;;15.10;60.00;;;;;;5032701;28;20025;-72
2021/05/16 06:15:38;;;;;;;1.10;0.43;;;15.20;59.90;;;;;;5034218;28;20490;-72
2021/05/16 06:18:04;;;;;;;3.60;0.45;;;15.20;59.70;;;;;;5034274;28;20025;-71
2021/05/16 06:20:30;;;;;;;0.98;0.50;;;15.20;59.80;;;;;;5034494;28;20025;-72
2021/05/16 06:22:57;;;;;;;3.60;0.60;;;15.30;59.90;;;;;;5035509;28;20112;-72
2021/05/16 06:25:23;;;;;;;3.80;0.43;;;15.30;59.60;;;;;;5035351;28;20491;-71
2021/05/16 06:27:48;;;;;;;1.10;0.40;;;15.30;59.20;;;;;;5035295;28;20063;-72
2021/05/16 06:30:16;;;;;;;2.45;0.60;;;15.40;59.60;;;;;;5035238;28;20135;-72
2021/05/16 06:32:42;;;;;;;1.83;0.50;;;15.50;59.40;;;;;;5033887;28;20028;-72
2021/05/16 06:35:09;;;;;;;0.68;0.22;;;15.50;59.10;;;;;;5034178;28;20480;-72
2021/05/16 06:37:35;;;;;;;6.60;0.88;;;15.60;59.70;;;;;;5035135;28;20022;-72
2021/05/16 06:40:01;;;;;;;1.88;0.60;;;15.60;59.40;;;;;;5034256;28;20034;-71
2021/05/16 06:42:27;;;;;;;0.90;0.30;;;15.60;57.90;;;;;;5023720;28;20026;-71
2021/05/16 06:44:53;;;;;;;1.58;0.50;;;15.70;58.20;;;;;;5015158;28;20057;-72
2021/05/16 06:47:20;;;;;;;1.00;0.30;;;15.70;58.20;;;;;;5015110;28;20025;-71
2021/05/16 06:49:52;;;;;;;1.95;0.57;;;15.70;57.60;;;;;;5029986;28;20037;-72
2021/05/16 06:52:21;;;;;;;1.95;0.88;;;15.80;57.00;;;;;;5015055;28;20018;-72
2021/05/16 06:54:48;;;;;;;6.05;0.75;;;15.80;56.70;;;;;;5015009;28;20105;-72
2021/05/16 06:57:15;;;;;;;2.50;0.50;;;15.80;57.30;;;;;;5014963;28;20026;-72
2021/05/16 06:59:41;;;;;;;1.75;0.35;;;15.90;57.70;;;;;;5013626;28;20141;-72
2021/05/16 07:02:07;;;;;;;2.13;0.63;;;16.00;57.70;;;;;;5014879;28;20138;-72
2021/05/16 07:04:34;;;;;;;1.63;0.60;;;16.10;57.90;;;;;;5015785;28;20084;-72
2021/05/16 07:07:00;;;;;;;2.78;0.68;;;16.10;57.00;;;;;;5034614;28;20025;-72
2021/05/16 07:09:25;;;;;;;1.98;0.68;;;16.10;55.90;;;;;;5034547;28;20036;-72
2021/05/16 07:11:52;;;;;;;1.67;0.73;;;16.20;55.90;;;;;;5032827;28;20112;-72
2021/05/16 07:14:18;;;;;;;1.45;0.63;;;16.30;56.60;;;;;;5034414;28;20104;-72
2021/05/16 07:16:44;;;;;;;2.15;0.77;;;16.30;56.20;;;;;;5034210;28;20053;-72
2021/05/16 07:19:09;;;;;;;0.45;0.40;;;16.40;56.30;;;;;;5032997;28;20040;-72
2021/05/16 07:21:35;;;;;;;1.40;0.43;;;16.40;55.70;;;;;;5028363;28;20462;-72
2021/05/16 07:24:01;;;;;;;3.00;0.80;;;16.40;55.70;;;;;;5034239;28;20033;-72
2021/05/16 07:26:27;;;;;;;1.30;0.47;;;16.50;55.30;;;;;;5034232;28;20021;-72
2021/05/16 07:28:53;;;;;;;9.57;0.80;;;16.50;55.40;;;;;;5032956;28;20506;-72
2021/05/16 07:31:19;;;;;;;5.18;0.40;;;16.50;55.20;;;;;;5034083;28;20097;-72
2021/05/16 07:33:45;;;;;;;2.17;0.52;;;16.60;55.80;;;;;;5034043;28;20021;-72
2021/05/16 07:36:11;;;;;;;2.08;0.60;;;16.60;55.90;;;;;;5032677;28;20395;-72
2021/05/16 07:38:37;;;;;;;1.15;0.32;;;16.70;56.00;;;;;;5033961;28;20029;-72
2021/05/16 07:41:03;;;;;;;2.00;0.70;;;16.80;56.20;;;;;;5033892;28;20104;-72
2021/05/16 07:43:29;;;;;;;2.55;0.80;;;16.90;55.20;;;;;;5030986;28;20075;-72
2021/05/16 07:45:55;;;;;;;1.35;0.50;;;17.00;55.00;;;;;;5031799;28;20029;-74
2021/05/16 07:48:28;;;;;;;1.63;0.68;;;17.00;55.40;;;;;;5030477;28;20025;-71
2021/05/16 07:50:55;;;;;;;2.85;0.70;;;17.10;54.40;;;;;;5012566;28;20050;-73
2021/05/16 07:53:22;;;;;;;1.92;0.50;;;17.10;53.60;;;;;;5013955;28;20025;-72
2021/05/16 07:55:47;;;;;;;1.52;0.68;;;17.10;52.90;;;;;;5014002;28;20413;-73
2021/05/16 07:58:13;;;;;;;2.30;0.98;;;17.20;52.80;;;;;;5030342;28;20067;-73
2021/05/16 08:00:39;;;;;;;4.07;0.75;;;17.20;53.20;;;;;;5028109;28;20045;-73
2021/05/16 08:03:04;;;;;;;2.75;0.45;;;17.20;52.90;;;;;;5026534;28;20104;-73
2021/05/16 08:05:31;;;;;;;3.63;0.90;;;17.20;52.10;;;;;;5033298;28;20021;-73
2021/05/16 08:07:57;;;;;;;7.47;1.00;;;17.20;52.90;;;;;;5033498;28;20022;-73
2021/05/16 08:10:23;;;;;;;1.58;0.70;;;17.20;52.30;;;;;;5031785;28;20025;-72
2021/05/16 08:12:49;;;;;;;2.85;0.70;;;17.20;52.30;;;;;;5032181;28;20388;-72
2021/05/16 08:15:15;;;;;;;1.60;0.77;;;17.20;51.30;;;;;;5033035;28;20025;-72
2021/05/16 08:17:41;;;;;;;2.67;0.60;;;17.30;52.20;;;;;;5037628;28;20025;-72
2021/05/16 08:20:09;;;;;;;4.13;0.50;;;17.30;51.70;;;;;;5053218;28;20025;-72
2021/05/16 08:22:35;;;;;;;2.65;0.60;;;17.30;51.30;;;;;;5053061;28;20025;-72
2021/05/16 08:25:04;;;;;;;2.42;0.70;;;17.30;52.40;;;;;;5037674;28;20034;-72
2021/05/16 08:27:29;;;;;;;4.57;0.93;;;17.40;52.00;;;;;;5031741;28;20062;-73
2021/05/16 08:29:55;;;;;;;3.20;0.90;;;17.40;51.00;;;;;;5032905;28;20025;-73
2021/05/16 08:32:21;;;;;;;3.55;0.85;;;17.40;52.10;;;;;;5031849;28;20021;-72
2021/05/16 08:34:47;;;;;;;0.90;0.50;;;17.40;51.00;;;;;;5032897;28;20026;-72
2021/05/16 08:37:13;;;;;;;2.80;0.73;;;17.50;52.40;;;;;;5032996;28;20061;-73
2021/05/16 08:39:39;;;;;;;5.07;1.35;;;17.50;51.00;;;;;;5030781;28;20029;-72
2021/05/16 08:42:05;;;;;;;2.60;0.80;;;17.50;50.80;;;;;;5033031;28;20030;-72
2021/05/16 08:44:32;;;;;;;6.85;0.85;;;17.60;52.20;;;;;;5032873;28;20500;-72
2021/05/16 08:46:59;;;;;;;5.95;1.00;;;17.70;51.10;;;;;;5031558;28;20026;-72
2021/05/16 08:49:25;;;;;;;11.60;1.45;;;17.80;50.50;;;;;;5032818;28;20046;-72
2021/05/16 08:51:50;;;;;;;1.83;0.77;;;17.90;49.80;;;;;;5033001;28;20029;-73
2021/05/16 08:54:21;;;;;;;4.05;0.93;;;18.00;50.40;;;;;;5031599;28;20033;-72
2021/05/16 08:56:51;;;;;;;4.72;1.02;;;18.00;48.60;;;;;;5032974;28;20025;-70
2021/05/16 08:59:18;;;;;;;1.88;0.60;;;18.10;49.50;;;;;;5032871;28;20379;-70
2021/05/16 09:01:49;;;;;;;3.67;0.88;;;18.10;50.80;;;;;;5032844;28;20114;-70
2021/05/16 09:04:31;;;;;;;6.95;0.80;;;18.20;50.20;;;;;;5032678;28;20104;-70
2021/05/16 09:06:57;;;;;;;2.40;0.80;;;18.30;49.60;;;;;;5031163;28;20108;-70
2021/05/16 09:09:36;;;;;;;5.57;0.90;;;18.30;49.50;;;;;;5022395;28;20018;-70
2021/05/16 09:12:09;;;;;;;2.85;0.60;;;18.30;49.30;;;;;;5028620;28;20021;-70
2021/05/16 09:14:54;;;;;;;2.25;0.65;;;18.40;49.30;;;;;;5032816;28;20064;-70
2021/05/16 09:17:30;;;;;;;1.92;0.50;;;18.40;49.50;;;;;;5031428;28;20033;-70
2021/05/16 09:20:07;;;;;;;5.85;0.68;;;18.40;49.80;;;;;;5032706;28;20390;-70
2021/05/16 09:22:35;;;;;;;1.90;0.52;;;18.40;49.00;;;;;;5032495;28;20041;-70
2021/05/16 09:25:24;;;;;;;4.18;1.00;;;18.40;49.30;;;;;;5032228;28;20471;-70
2021/05/16 09:27:56;;;;;;;1.75;0.57;;;18.40;47.90;;;;;;5035304;28;20602;-70
2021/05/16 09:30:24;;;;;;;3.50;0.77;;;18.40;47.60;;;;;;5036362;28;20489;-69
2021/05/16 09:32:57;;;;;;;2.35;0.77;;;18.40;48.60;;;;;;5036001;28;20102;-70
2021/05/16 09:35:31;;;;;;;4.00;0.50;;;18.40;47.10;;;;;;5035305;28;20411;-70
2021/05/16 09:38:15;;;;;;;3.17;0.80;;;18.40;48.30;;;;;;5036174;28;20030;-70
2021/05/16 09:40:52;;;;;;;3.03;0.70;;;18.50;48.70;;;;;;5032585;28;20041;-70
2021/05/16 09:43:26;;;;;;;6.43;1.27;;;18.50;47.80;;;;;;5034897;28;20383;-70
2021/05/16 09:46:01;;;;;;;2.90;0.82;;;18.60;47.90;;;;;;5033688;28;20382;-70
2021/05/16 09:48:33;;;;;;;3.40;1.10;;;18.60;48.60;;;;;;5036055;28;20076;-70
2021/05/16 09:51:18;;;;;;;1.55;0.45;;;18.70;47.90;;;;;;5043604;28;20045;-69
2021/05/16 09:54:06;;;;;;;2.15;0.80;;;18.70;47.70;;;;;;5055787;28;20013;-70
2021/05/16 09:56:37;;;;;;;2.60;0.70;;;18.80;47.30;;;;;;5022002;28;20476;-69
2021/05/16 09:59:08;;;;;;;4.18;1.30;;;18.90;48.20;;;;;;5035559;28;20029;-70
2021/05/16 10:01:35;;;;;;;2.80;0.70;;;19.00;47.20;;;;;;5035919;28;20483;-69
2021/05/16 10:04:02;;;;;;;3.72;0.90;;;19.00;46.40;;;;;;5035669;28;20112;-70
2021/05/16 10:06:29;;;;;;;1.30;0.65;;;19.10;46.60;;;;;;5035596;28;20064;-70
2021/05/16 10:08:56;;;;;;;2.47;0.60;;;19.20;46.50;;;;;;5026325;28;20022;-70
2021/05/16 10:11:29;;;;;;;1.85;0.50;;;19.30;46.50;;;;;;5015987;28;20545;-67
2021/05/16 10:14:05;;;;;;;2.70;0.80;;;19.40;46.50;;;;;;5015804;28;20036;-70
2021/05/16 10:16:46;;;;;;;3.47;0.82;;;19.50;45.90;;;;;;5015663;28;20786;-70
2021/05/16 10:19:17;;;;;;;4.20;0.90;;;19.50;47.40;;;;;;5015601;28;20021;-70
2021/05/16 10:21:44;;;;;;;4.63;0.95;;;19.60;48.00;;;;;;5015720;28;20025;-70
2021/05/16 10:24:18;;;;;;;2.20;0.70;;;19.70;46.70;;;;;;5015623;28;20285;-70
2021/05/16 10:26:44;;;;;;;3.60;0.75;;;19.70;46.90;;;;;;5015558;28;20433;-69
2021/05/16 10:29:17;;;;;;;5.47;1.05;;;19.80;46.50;;;;;;5015528;28;20136;-70
2021/05/16 10:31:52;;;;;;;4.15;1.10;;;19.90;45.60;;;;;;5015428;28;20468;-69
2021/05/16 10:34:30;;;;;;;1.50;0.50;;;19.90;45.40;;;;;;5015412;28;20021;-69
2021/05/16 10:36:58;;;;;;;3.85;0.80;;;19.90;46.10;;;;;;5015397;28;20038;-69
2021/05/16 10:39:42;;;;;;;2.25;0.57;;;20.00;45.40;;;;;;5025597;28;20021;-69
2021/05/16 10:42:16;;;;;;;1.42;0.63;;;20.10;44.50;;;;;;5036124;28;20478;-69
2021/05/16 10:45:01;;;;;;;1.95;0.60;;;20.10;46.40;;;;;;5033032;28;20038;-69
2021/05/16 10:48:06;;;;;;;2.03;0.75;;;20.20;46.30;;;;;;5015236;28;20168;-68
2021/05/16 10:50:58;;;;;;;3.65;0.90;;;20.30;44.90;;;;;;5023838;28;20488;-69
2021/05/16 10:53:35;;;;;;;1.70;0.68;;;20.30;45.70;;;;;;5027187;28;20017;-67
2021/05/16 10:56:18;;;;;;;2.78;0.70;;;20.30;45.00;;;;;;5041291;28;20112;-68
2021/05/16 10:58:54;;;;;;;1.97;0.63;;;20.40;46.00;;;;;;5047911;28;20014;-69
2021/05/16 11:01:37;;;;;;;4.43;0.80;;;20.50;45.40;;;;;;5022579;28;20049;-68
2021/05/16 11:04:05;;;;;;;2.33;0.85;;;20.50;44.70;;;;;;5031082;28;20030;-68
2021/05/16 11:06:31;;;;;;;3.15;0.90;;;20.50;44.00;;;;;;5023412;28;20036;-68
2021/05/16 11:08:57;;;;;;;3.03;1.00;;;20.50;43.20;;;;;;5026841;28;20026;-68
2021/05/16 11:11:48;;;;;;;5.05;1.02;;;20.50;42.80;;;;;;5041714;28;20040;-68
2021/05/16 11:14:32;;;;;;;3.95;0.65;;;20.50;43.20;;;;;;5037918;28;20447;-69
2021/05/16 11:17:03;;;;;;;3.58;0.70;;;20.60;43.50;;;;;;5034341;28;20028;-68
2021/05/16 11:19:31;;;;;;;2.22;0.77;;;20.70;44.50;;;;;;5034427;28;20029;-68
2021/05/16 11:22:08;;;;;;;2.42;0.82;;;20.90;44.80;;;;;;5034714;28;20028;-68
2021/05/16 11:24:44;;;;;;;5.65;0.95;;;21.00;44.40;;;;;;5054139;28;20612;-68
2021/05/16 11:27:25;;;;;;;2.25;0.90;;;21.30;45.20;;;;;;5054104;28;20056;-68
2021/05/16 11:30:11;;;;;;;2.53;0.70;;;21.50;44.90;;;;;;5041656;28;20009;-68
2021/05/16 11:32:37;;;;;;;2.75;0.70;;;21.80;45.70;;;;;;5017305;28;20056;-68
2021/05/16 11:35:13;;;;;;;2.55;0.80;;;22.10;42.90;;;;;;5033894;28;20030;-68
2021/05/16 11:37:40;;;;;;;3.33;0.90;;;22.20;41.70;;;;;;5041270;28;20063;-68
2021/05/16 11:40:16;;;;;;;2.58;0.80;;;22.30;41.80;;;;;;5017802;28;20022;-68
2021/05/16 11:42:42;;;;;;;3.63;1.20;;;22.40;42.60;;;;;;5017545;28;20032;-68
2021/05/16 11:45:15;;;;;;;2.17;1.05;;;22.40;40.30;;;;;;5014061;28;20444;-68
2021/05/16 11:47:43;;;;;;;3.28;0.95;;;22.50;41.80;;;;;;5012872;28;20387;-69
2021/05/16 11:50:11;;;;;;;2.17;0.80;;;22.50;41.80;;;;;;5013254;28;20113;-68
2021/05/16 11:52:37;;;;;;;3.55;0.85;;;22.60;42.80;;;;;;5013892;28;20030;-68
2021/05/16 11:55:10;;;;;;;3.67;0.90;;;22.70;41.50;;;;;;5013975;28;20026;-69
2021/05/16 11:57:43;;;;;;;3.07;1.00;;;22.70;39.00;;;;;;5016177;28;20022;-69
2021/05/16 12:00:12;;;;;;;1.92;0.60;;;22.70;41.20;;;;;;5025419;28;20097;-69
2021/05/16 12:02:38;;;;;;;1.80;0.68;;;22.70;42.70;;;;;;5024297;28;20395;-69
2021/05/16 12:05:05;;;;;;;4.40;0.98;;;22.60;42.60;;;;;;5031128;28;20021;-68
2021/05/16 12:07:31;;;;;;;6.95;1.10;;;22.60;40.30;;;;;;5013421;28;20052;-68
2021/05/16 12:09:58;;;;;;;5.07;1.42;;;22.60;40.00;;;;;;5013732;28;20092;-68
2021/05/16 12:12:27;;;;;;;2.35;0.82;;;22.60;40.30;;;;;;5020258;28;20024;-68
2021/05/16 12:14:56;;;;;;;4.00;1.13;;;22.50;41.10;;;;;;5033256;28;20356;-68
2021/05/16 12:17:38;;;;;;;4.93;1.00;;;22.50;40.20;;;;;;5033009;28;20025;-69
2021/05/16 12:20:06;;;;;;;4.15;1.13;;;22.40;40.80;;;;;;5033219;28;20426;-68
2021/05/16 12:22:37;;;;;;;2.67;0.75;;;22.40;40.10;;;;;;5033235;28;20021;-68
2021/05/16 12:25:07;;;;;;;3.22;0.63;;;22.30;39.40;;;;;;5033155;28;20029;-69
2021/05/16 12:27:33;;;;;;;2.05;0.80;;;22.20;40.30;;;;;;5033200;28;20112;-69
2021/05/16 12:29:59;;;;;;;4.40;0.77;;;22.20;40.20;;;;;;5033059;28;20049;-69
2021/05/16 12:32:27;;;;;;;3.90;1.38;;;22.20;40.30;;;;;;5033087;28;20028;-69
2021/05/16 12:34:54;;;;;;;3.22;0.80;;;22.20;39.10;;;;;;5015757;28;20026;-69
2021/05/16 12:37:24;;;;;;;5.68;0.93;;;22.20;40.70;;;;;;5013348;28;20032;-69
2021/05/16 12:39:59;;;;;;;4.18;1.05;;;22.20;39.50;;;;;;5013265;28;20030;-69
2021/05/16 12:42:34;;;;;;;6.75;1.10;;;22.20;39.40;;;;;;5014459;28;20056;-69
2021/05/16 12:45:19;;;;;;;5.53;1.10;;;22.20;38.00;;;;;;5013263;28;20121;-69
2021/05/16 12:48:05;;;;;;;8.45;0.70;;;22.20;38.50;;;;;;5013214;28;20014;-68
2021/05/16 12:50:42;;;;;;;3.17;0.88;;;22.30;38.80;;;;;;5012870;28;20407;-69
2021/05/16 12:53:31;;;;;;;2.33;0.52;;;22.40;38.30;;;;;;5013178;28;20073;-69
2021/05/16 12:56:24;;;;;;;2.78;0.80;;;22.50;40.30;;;;;;5013215;28;20030;-69